עמוד ראשי
METAR-TAF:

METAR-TAF

שדות תעופה :

מצ'אלה, אקוודור

קו רוחב: 03-26-07S, קו אורך: 079-58-40W, גובה: 52מטר

תצפית מזג אוויר נוכחית

הדו"ח נערך לפני 15 שעות ו 25דקות, בשעה 20:00 UTC
רוח 9קשר מכיוון צפון/צפון-מערב
טמפרטורת 33 צלסיוס
לחות 53%
לחץ 1008 hPa
ראות 10 קילומטר או יותר
מעט עננים בגובה 1000רגל
עננים פזורים בגובה 10000רגל

METAR: SERO 112000Z 33009KT 9999 FEW010 SCT100 33/22 Q1008

זמן: 06:25 (11:25 UTC)


TAF: חסר

תצפיות ותחזיות מזג אוויר לגבי יותר מ- 4,000 שדות תעופה ברחבי העולם. דוחות METAR ו- TAF.

התחנות הזמינות מסומנות בנקודות צהובות ואדומות על גבי המפה.

העבר את העכבר לנקודה הצבעונית על מנת לראות את שם התחנה.

לאחר מכן, לחץ כדי לראות את תוכן ואת תחזיות מזג האוויר.

כדי לשנות את המפה: לחץ על הכפתורים הירוקים עם הפלוס השחור כדי להתקרב; על הכפתור הירוק עם המקף כדי להתרחק; או בחיצים הירוקים למפות סמוכות.


METAR-TAF: